Time;durP1;ratioP1;P1;durP2;ratioP2;P2;SDS_P1;SDS_P2;PMS_P1;PMS_P2;Temp;Humidity;BMP_temperature;BMP_pressure;BME280_temperature;BME280_humidity;BME280_pressure;Samples;Min_cycle;Max_cycle;Signal;HPM_P1;HPM_P2
2023/01/23 00:00:12;;;;;;;;;;;28.30;96.70;;;;;;5024058;28;19916;-72
2023/01/23 00:02:42;;;;;;;;;;;28.30;96.60;;;;;;5024063;28;19912;-72
2023/01/23 00:05:13;;;;;;;;;;;28.20;96.40;;;;;;5029346;28;20465;-72
2023/01/23 00:07:39;;;;;;;;;;;27.90;96.50;;;;;;5032797;28;19920;-72
2023/01/23 00:10:06;;;;;;;;;;;27.40;96.80;;;;;;5034395;28;19917;-73
2023/01/23 00:12:36;;;;;;;;;;;27.60;97.30;;;;;;5043043;28;19956;-74
2023/01/23 00:15:03;;;;;;;;;;;28.00;96.10;;;;;;5033170;28;19954;-73
2023/01/23 00:17:30;;;;;;;;;;;28.70;93.80;;;;;;5035054;28;20284;-73
2023/01/23 00:19:58;;;;;;;;;;;29.20;93.80;;;;;;5032921;28;19920;-72
2023/01/23 00:22:25;;;;;;;;;;;29.70;93.90;;;;;;5034034;28;19940;-72
2023/01/23 00:24:51;;;;;;;;;;;29.30;94.10;;;;;;5033322;28;21814;-71
2023/01/23 00:27:18;;;;;;;;;;;29.40;95.00;;;;;;5033549;28;20260;-72
2023/01/23 00:29:46;;;;;;;;;;;29.70;94.20;;;;;;5033321;28;19923;-73
2023/01/23 00:32:12;;;;;;;;;;;29.90;92.90;;;;;;5033848;28;19927;-71
2023/01/23 00:34:39;;;;;;;;;;;30.00;92.80;;;;;;5033294;28;19925;-71
2023/01/23 00:37:06;;;;;;;;;;;30.10;92.80;;;;;;5032887;28;19923;-71
2023/01/23 00:39:33;;;;;;;;;;;30.10;93.40;;;;;;5026417;28;19913;-72
2023/01/23 00:42:00;;;;;;;;;;;30.20;93.70;;;;;;5026546;28;19923;-74
2023/01/23 00:44:26;;;;;;;;;;;29.90;92.40;;;;;;5033362;28;19912;-73
2023/01/23 00:46:53;;;;;;;;;;;29.90;92.90;;;;;;5034004;28;19913;-73
2023/01/23 00:49:20;;;;;;;;;;;30.10;92.20;;;;;;5033986;28;19913;-73
2023/01/23 00:51:47;;;;;;;;;;;29.80;93.10;;;;;;5033926;28;20284;-73
2023/01/23 00:54:14;;;;;;;;;;;29.30;93.70;;;;;;5032381;28;19915;-74
2023/01/23 00:56:43;;;;;;;;;;;29.10;93.30;;;;;;5034502;28;21826;-73
2023/01/23 00:59:10;;;;;;;;;;;28.90;92.70;;;;;;5032397;28;20314;-72
2023/01/23 01:01:37;;;;;;;;;;;28.90;93.10;;;;;;5031720;28;19922;-73
2023/01/23 01:04:04;;;;;;;;;;;29.00;92.80;;;;;;5031750;28;19936;-73
2023/01/23 01:06:30;;;;;;;;;;;29.30;93.20;;;;;;5035134;28;20473;-72
2023/01/23 01:08:58;;;;;;;;;;;29.50;92.30;;;;;;5031570;28;20316;-73
2023/01/23 01:11:25;;;;;;;;;;;29.00;91.60;;;;;;5026032;28;20367;-73
2023/01/23 01:13:52;;;;;;;;;;;28.50;91.90;;;;;;5041515;28;19919;-72
2023/01/23 01:16:18;;;;;;;;;;;28.20;92.70;;;;;;5033511;28;20428;-73
2023/01/23 01:18:45;;;;;;;;;;;28.00;92.30;;;;;;5032863;28;19971;-71
2023/01/23 01:21:13;;;;;;;;;;;27.80;92.30;;;;;;5032609;28;20267;-71
2023/01/23 01:23:40;;;;;;;;;;;27.80;93.50;;;;;;5030452;28;19994;-72
2023/01/23 01:26:07;;;;;;;;;;;27.90;93.30;;;;;;5033988;28;19923;-72
2023/01/23 01:28:35;;;;;;;;;;;28.00;93.50;;;;;;5031436;28;19985;-72
2023/01/23 01:31:09;;;;;;;;;;;28.10;93.40;;;;;;5033456;28;19909;-71
2023/01/23 01:33:36;;;;;;;;;;;28.60;93.40;;;;;;5030975;28;19924;-72
2023/01/23 01:36:07;;;;;;;;;;;28.90;92.70;;;;;;5034183;28;20791;-71
2023/01/23 01:38:33;;;;;;;;;;;29.00;91.90;;;;;;5031656;28;20006;-72
2023/01/23 01:41:00;;;;;;;;;;;29.40;93.10;;;;;;5033241;28;19921;-72
2023/01/23 01:43:27;;;;;;;;;;;29.70;92.10;;;;;;5033488;28;19924;-72
2023/01/23 01:46:14;;;;;;;;;;;29.90;92.10;;;;;;5036330;28;19924;-71
2023/01/23 01:48:41;;;;;;;;;;;30.10;92.40;;;;;;5031170;28;20024;-72
2023/01/23 01:51:11;;;;;;;;;;;30.00;91.30;;;;;;5033674;28;20433;-72
2023/01/23 01:53:38;;;;;;;;;;;30.00;92.00;;;;;;5031097;28;19921;-72
2023/01/23 01:56:06;;;;;;;;;;;29.90;92.00;;;;;;5031315;28;19948;-72
2023/01/23 01:58:33;;;;;;;;;;;29.80;92.20;;;;;;5031627;28;19959;-71
2023/01/23 02:01:00;;;;;;;;;;;29.70;92.00;;;;;;5031002;28;19956;-72
2023/01/23 02:03:27;;;;;;;;;;;29.60;91.80;;;;;;5030540;28;20358;-71
2023/01/23 02:05:53;;;;;;;;;;;29.50;92.60;;;;;;5031618;28;19979;-71
2023/01/23 02:08:28;;;;;;;;;;;29.40;92.60;;;;;;5031015;28;19917;-71
2023/01/23 02:10:55;;;;;;;;;;;29.40;92.90;;;;;;5030367;28;20033;-71
2023/01/23 02:13:22;;;;;;;;;;;29.50;92.40;;;;;;5037718;28;19928;-71
2023/01/23 02:15:49;;;;;;;;;;;29.70;92.00;;;;;;5031427;28;19916;-71
2023/01/23 02:18:16;;;;;;;;;;;29.90;92.20;;;;;;5032217;28;20816;-72
2023/01/23 02:20:42;;;;;;;;;;;29.90;91.80;;;;;;5030661;28;19917;-70
2023/01/23 02:23:15;;;;;;;;;;;30.10;92.80;;;;;;5030825;28;20003;-72
2023/01/23 02:25:50;;;;;;;;;;;30.00;92.40;;;;;;5031391;28;19912;-72
2023/01/23 02:28:16;;;;;;;;;;;30.00;92.90;;;;;;5031037;28;19920;-72
2023/01/23 02:30:46;;;;;;;;;;;30.30;93.40;;;;;;5031079;28;19923;-71
2023/01/23 02:33:19;;;;;;;;;;;30.00;93.20;;;;;;5030652;28;20398;-72
2023/01/23 02:35:46;;;;;;;;;;;29.80;93.40;;;;;;5040620;28;19967;-71
2023/01/23 02:38:13;;;;;;;;;;;29.70;93.50;;;;;;5030747;28;19917;-72
2023/01/23 02:40:41;;;;;;;;;;;29.50;93.70;;;;;;5031552;28;19939;-71
2023/01/23 02:43:10;;;;;;;;;;;29.40;94.50;;;;;;5033573;28;19912;-72
2023/01/23 02:45:37;;;;;;;;;;;29.30;94.50;;;;;;5029632;28;20016;-72
2023/01/23 02:48:05;;;;;;;;;;;29.10;94.40;;;;;;5024703;28;19923;-71
2023/01/23 02:50:31;;;;;;;;;;;29.10;94.30;;;;;;5024886;28;19924;-71
2023/01/23 02:52:58;;;;;;;;;;;29.10;93.90;;;;;;5024923;28;19929;-71
2023/01/23 02:55:36;;;;;;;;;;;29.20;93.70;;;;;;5024526;28;19916;-72
2023/01/23 03:00:48;;;;;;;;;;;29.70;93.50;;;;;;5028977;28;20038;-73
2023/01/23 03:03:14;;;;;;;;;;;30.10;93.70;;;;;;5031891;28;20066;-71
2023/01/23 03:05:41;;;;;;;;;;;30.40;93.00;;;;;;5029252;28;20489;-71
2023/01/23 03:08:08;;;;;;;;;;;30.40;92.90;;;;;;5035629;28;20021;-72
2023/01/23 03:10:35;;;;;;;;;;;30.70;93.10;;;;;;5029372;28;19928;-72
2023/01/23 03:13:03;;;;;;;;;;;31.00;93.20;;;;;;5026852;28;20019;-70
2023/01/23 03:15:30;;;;;;;;;;;31.00;92.20;;;;;;5029845;28;19916;-72
2023/01/23 03:17:57;;;;;;;;;;;31.00;92.90;;;;;;5029916;28;19920;-71
2023/01/23 03:20:23;;;;;;;;;;;31.20;92.90;;;;;;5028573;28;19916;-72
2023/01/23 03:22:50;;;;;;;;;;;31.00;91.90;;;;;;5030093;28;19912;-71
2023/01/23 03:25:17;;;;;;;;;;;30.50;91.80;;;;;;5030318;28;19923;-71
2023/01/23 03:27:44;;;;;;;;;;;30.30;92.20;;;;;;5029189;28;19924;-71
2023/01/23 03:30:20;;;;;;;;;;;30.50;93.60;;;;;;5029429;28;19916;-71
2023/01/23 03:32:47;;;;;;;;;;;30.90;93.00;;;;;;5029932;28;19932;-71
2023/01/23 03:35:19;;;;;;;;;;;31.00;92.50;;;;;;5031232;28;20529;-71
2023/01/23 03:37:46;;;;;;;;;;;30.60;91.80;;;;;;5028408;28;19975;-72
2023/01/23 03:43:02;;;;;;;;;;;29.80;92.40;;;;;;5032613;28;20008;-71
2023/01/23 03:45:29;;;;;;;;;;;29.80;93.50;;;;;;5033055;28;19924;-73
2023/01/23 03:47:56;;;;;;;;;;;29.70;93.10;;;;;;5033858;28;20347;-70
2023/01/23 03:50:23;;;;;;;;;;;29.80;93.10;;;;;;5032083;28;19912;-71
2023/01/23 03:52:49;;;;;;;;;;;30.20;92.40;;;;;;5033879;28;20351;-71
2023/01/23 03:55:16;;;;;;;;;;;30.30;92.20;;;;;;5032083;28;19919;-71
2023/01/23 03:57:43;;;;;;;;;;;30.40;92.30;;;;;;5033113;28;19921;-72
2023/01/23 04:00:12;;;;;;;;;;;30.80;92.30;;;;;;5032854;28;19958;-71
2023/01/23 04:02:39;;;;;;;;;;;30.90;92.70;;;;;;5055797;28;19956;-72
2023/01/23 04:05:06;;;;;;;;;;;30.70;92.20;;;;;;5060312;28;19904;-72
2023/01/23 04:07:32;;;;;;;;;;;30.80;92.10;;;;;;5066037;28;19951;-72
2023/01/23 04:09:59;;;;;;;;;;;31.10;92.30;;;;;;5050906;28;19948;-71
2023/01/23 04:12:26;;;;;;;;;;;30.90;91.80;;;;;;5048560;28;20011;-71
2023/01/23 04:14:52;;;;;;;;;;;30.40;92.20;;;;;;5056061;28;20002;-70
2023/01/23 04:17:19;;;;;;;;;;;29.90;92.40;;;;;;5046554;28;19913;-72
2023/01/23 04:19:46;;;;;;;;;;;29.40;92.70;;;;;;5034024;28;19962;-71
2023/01/23 04:22:12;;;;;;;;;;;29.30;93.00;;;;;;5033624;28;19975;-71
2023/01/23 04:24:39;;;;;;;;;;;29.20;93.30;;;;;;5033126;28;19966;-70
2023/01/23 04:27:06;;;;;;;;;;;29.60;93.20;;;;;;5032927;28;19928;-71
2023/01/23 04:29:32;;;;;;;;;;;30.10;92.80;;;;;;5032630;28;19923;-71
2023/01/23 04:31:59;;;;;;;;;;;30.10;93.00;;;;;;5032550;28;19920;-71
2023/01/23 04:34:26;;;;;;;;;;;29.70;92.90;;;;;;5031084;28;19932;-71
2023/01/23 04:36:53;;;;;;;;;;;29.30;93.40;;;;;;5030778;28;19913;-72
2023/01/23 04:39:19;;;;;;;;;;;29.00;93.30;;;;;;5032306;28;19913;-72
2023/01/23 04:41:46;;;;;;;;;;;28.80;93.50;;;;;;5030961;28;19916;-73
2023/01/23 04:44:19;;;;;;;;;;;28.60;94.50;;;;;;5031950;28;19916;-71
2023/01/23 04:46:48;;;;;;;;;;;28.30;94.90;;;;;;5031403;28;20007;-71
2023/01/23 04:49:15;;;;;;;;;;;28.00;95.40;;;;;;5030458;28;19938;-71
2023/01/23 04:51:43;;;;;;;;;;;27.60;95.60;;;;;;5029574;28;19920;-71
2023/01/23 04:54:10;;;;;;;;;;;27.60;95.80;;;;;;5030271;28;19963;-71
2023/01/23 04:56:36;;;;;;;;;;;27.40;95.80;;;;;;5031791;28;20284;-72
2023/01/23 04:59:04;;;;;;;;;;;27.30;95.70;;;;;;5030566;28;19966;-71
2023/01/23 05:01:30;;;;;;;;;;;27.30;96.00;;;;;;5031283;28;19928;-71
2023/01/23 05:03:57;;;;;;;;;;;27.30;96.00;;;;;;5031956;28;19958;-71
2023/01/23 05:06:24;;;;;;;;;;;27.20;96.30;;;;;;5031116;28;19913;-72
2023/01/23 05:08:51;;;;;;;;;;;27.10;96.00;;;;;;5027082;28;20283;-72
2023/01/23 05:11:17;;;;;;;;;;;27.20;95.90;;;;;;5025562;28;19917;-71
2023/01/23 05:13:44;;;;;;;;;;;27.20;96.10;;;;;;5024737;28;19917;-72
2023/01/23 05:16:11;;;;;;;;;;;27.30;95.80;;;;;;5034636;28;19908;-71
2023/01/23 05:18:37;;;;;;;;;;;27.30;96.10;;;;;;5028183;28;19923;-71
2023/01/23 05:21:04;;;;;;;;;;;27.20;96.20;;;;;;5029580;28;19917;-72
2023/01/23 05:23:31;;;;;;;;;;;27.00;96.30;;;;;;5026401;28;20244;-71
2023/01/23 05:25:57;;;;;;;;;;;26.90;96.70;;;;;;5025681;28;19920;-71
2023/01/23 05:28:24;;;;;;;;;;;26.90;96.80;;;;;;5032739;28;19916;-72
2023/01/23 05:30:51;;;;;;;;;;;26.90;96.70;;;;;;5031939;28;19916;-72
2023/01/23 05:33:17;;;;;;;;;;;27.00;96.70;;;;;;4927820;28;2950130;-71
2023/01/23 05:35:44;;;;;;;;;;;27.00;96.50;;;;;;5030835;28;20405;-70
2023/01/23 05:38:13;;;;;;;;;;;27.10;96.40;;;;;;5031202;28;19908;-71
2023/01/23 05:40:40;;;;;;;;;;;27.10;96.50;;;;;;5031431;28;20492;-71
2023/01/23 05:43:08;;;;;;;;;;;27.10;96.80;;;;;;5030988;28;19916;-70
2023/01/23 05:45:34;;;;;;;;;;;27.10;97.10;;;;;;5031792;28;19917;-70
2023/01/23 05:48:01;;;;;;;;;;;27.10;97.10;;;;;;5032155;28;19913;-71
2023/01/23 05:50:28;;;;;;;;;;;27.10;97.20;;;;;;5030887;28;19913;-71
2023/01/23 05:52:54;;;;;;;;;;;27.00;96.90;;;;;;5029763;28;20020;-71
2023/01/23 05:55:21;;;;;;;;;;;27.00;96.80;;;;;;5030980;28;19913;-72
2023/01/23 05:57:48;;;;;;;;;;;26.90;96.80;;;;;;5030986;28;19913;-72
2023/01/23 06:00:15;;;;;;;;;;;26.90;96.60;;;;;;5031160;28;19912;-71
2023/01/23 06:02:42;;;;;;;;;;;26.80;96.40;;;;;;5029081;28;19917;-70
2023/01/23 06:05:09;;;;;;;;;;;26.70;96.60;;;;;;5026234;28;20039;-74
2023/01/23 06:07:36;;;;;;;;;;;26.60;96.60;;;;;;5026272;28;20465;-71
2023/01/23 06:10:03;;;;;;;;;;;26.50;96.80;;;;;;5025914;28;19978;-71
2023/01/23 06:12:29;;;;;;;;;;;26.40;97.00;;;;;;5035918;28;19956;-70
2023/01/23 06:14:56;;;;;;;;;;;26.30;97.00;;;;;;5030875;28;19917;-71
2023/01/23 06:17:23;;;;;;;;;;;26.30;97.10;;;;;;5031286;28;19970;-71
2023/01/23 06:19:49;;;;;;;;;;;26.30;97.30;;;;;;5031809;28;19920;-71
2023/01/23 06:22:16;;;;;;;;;;;26.20;97.30;;;;;;5032530;28;19913;-73
2023/01/23 06:24:43;;;;;;;;;;;26.20;97.20;;;;;;5030427;28;19917;-71
2023/01/23 06:27:10;;;;;;;;;;;26.10;97.10;;;;;;5029444;28;19920;-69
2023/01/23 06:29:37;;;;;;;;;;;26.10;97.30;;;;;;5031579;28;19916;-71
2023/01/23 06:32:04;;;;;;;;;;;26.20;97.80;;;;;;5031790;28;19932;-70
2023/01/23 06:34:33;;;;;;;;;;;26.20;97.90;;;;;;5030420;28;19924;-70
2023/01/23 06:37:00;;;;;;;;;;;26.30;98.20;;;;;;5031632;28;19939;-70
2023/01/23 06:39:29;;;;;;;;;;;26.30;98.80;;;;;;5028966;28;20272;-69
2023/01/23 06:41:56;;;;;;;;;;;26.50;98.40;;;;;;5024421;28;19924;-69
2023/01/23 06:44:23;;;;;;;;;;;26.60;98.00;;;;;;5023813;28;19938;-71
2023/01/23 06:46:52;;;;;;;;;;;26.80;97.70;;;;;;5023551;28;20264;-71
2023/01/23 06:49:18;;;;;;;;;;;27.00;97.50;;;;;;5024294;28;19917;-71
2023/01/23 06:51:46;;;;;;;;;;;27.10;97.20;;;;;;5024142;28;20039;-71
2023/01/23 06:54:13;;;;;;;;;;;27.00;97.20;;;;;;5021694;28;19974;-70
2023/01/23 06:56:39;;;;;;;;;;;26.90;97.30;;;;;;5022835;28;19917;-71
2023/01/23 06:59:07;;;;;;;;;;;26.70;97.20;;;;;;5026556;28;19913;-71
2023/01/23 07:01:33;;;;;;;;;;;26.60;97.50;;;;;;5024692;28;19927;-70
2023/01/23 07:04:00;;;;;;;;;;;26.50;97.90;;;;;;5024193;28;19924;-71
2023/01/23 07:06:26;;;;;;;;;;;26.30;98.00;;;;;;5024715;28;20385;-71
2023/01/23 07:08:53;;;;;;;;;;;26.10;98.20;;;;;;5030452;28;20371;-70
2023/01/23 07:11:20;;;;;;;;;;;26.00;98.30;;;;;;5024434;28;19927;-71
2023/01/23 07:13:46;;;;;;;;;;;25.90;98.70;;;;;;5025079;28;19925;-71
2023/01/23 07:16:13;;;;;;;;;;;25.80;98.70;;;;;;5025769;28;20275;-70
2023/01/23 07:18:40;;;;;;;;;;;25.70;98.80;;;;;;5026106;28;20295;-73
2023/01/23 07:21:07;;;;;;;;;;;25.70;99.00;;;;;;5026037;28;20002;-70
2023/01/23 07:23:37;;;;;;;;;;;25.60;99.00;;;;;;5028424;28;19916;-71
2023/01/23 07:26:08;;;;;;;;;;;25.60;99.20;;;;;;5029994;28;20035;-72
2023/01/23 07:28:35;;;;;;;;;;;25.50;99.30;;;;;;5030530;28;19921;-71
2023/01/23 07:31:03;;;;;;;;;;;25.40;99.60;;;;;;5029624;28;19923;-72
2023/01/23 07:33:29;;;;;;;;;;;25.40;99.70;;;;;;5029516;28;19925;-72
2023/01/23 07:35:56;;;;;;;;;;;25.40;99.50;;;;;;5030045;28;19916;-72
2023/01/23 07:38:23;;;;;;;;;;;25.40;99.50;;;;;;5028686;28;20047;-72
2023/01/23 07:40:50;;;;;;;;;;;25.30;99.50;;;;;;5029558;28;19917;-72
2023/01/23 07:43:17;;;;;;;;;;;25.30;99.60;;;;;;5029671;28;19921;-72
2023/01/23 07:45:44;;;;;;;;;;;25.20;99.80;;;;;;5029045;28;20324;-72
2023/01/23 07:48:10;;;;;;;;;;;25.20;99.80;;;;;;5030632;28;19935;-72
2023/01/23 07:50:37;;;;;;;;;;;25.10;99.90;;;;;;5028369;28;19917;-73
2023/01/23 07:53:04;;;;;;;;;;;25.10;99.90;;;;;;5030319;28;19925;-72
2023/01/23 07:55:31;;;;;;;;;;;25.00;99.90;;;;;;5030287;28;21515;-72
2023/01/23 07:57:58;;;;;;;;;;;25.00;99.90;;;;;;5030035;28;19915;-71
2023/01/23 08:00:24;;;;;;;;;;;24.90;99.90;;;;;;5029256;28;20020;-70
2023/01/23 08:02:51;;;;;;;;;;;24.80;99.90;;;;;;5030676;28;19913;-72
2023/01/23 08:05:18;;;;;;;;;;;24.70;99.90;;;;;;5030643;28;19912;-73
2023/01/23 08:07:45;;;;;;;;;;;24.60;99.90;;;;;;5029374;28;19935;-73
2023/01/23 08:10:11;;;;;;;;;;;24.60;99.90;;;;;;5037967;28;19913;-72
2023/01/23 08:12:38;;;;;;;;;;;24.60;99.90;;;;;;5028916;28;19921;-73
2023/01/23 08:15:05;;;;;;;;;;;24.50;99.90;;;;;;5029455;28;19923;-72
2023/01/23 08:17:32;;;;;;;;;;;24.50;99.90;;;;;;5031304;28;19912;-74
2023/01/23 08:19:58;;;;;;;;;;;24.40;99.90;;;;;;5031039;28;20208;-72
2023/01/23 08:22:25;;;;;;;;;;;24.30;99.90;;;;;;5030586;28;19920;-72
2023/01/23 08:24:52;;;;;;;;;;;24.20;99.90;;;;;;5029422;28;19950;-73
2023/01/23 08:27:19;;;;;;;;;;;24.10;99.90;;;;;;5033252;28;19942;-73
2023/01/23 08:29:45;;;;;;;;;;;24.00;99.90;;;;;;5033763;28;20015;-71
2023/01/23 08:32:12;;;;;;;;;;;23.90;99.90;;;;;;5032358;28;20426;-72
2023/01/23 08:34:38;;;;;;;;;;;23.80;99.90;;;;;;5030343;28;19959;-72
2023/01/23 08:37:05;;;;;;;;;;;23.80;99.90;;;;;;5032621;28;19917;-72
2023/01/23 08:39:32;;;;;;;;;;;23.80;99.90;;;;;;5033812;28;19923;-72
2023/01/23 08:41:58;;;;;;;;;;;23.80;99.90;;;;;;5034365;28;19920;-73
2023/01/23 08:44:25;;;;;;;;;;;23.80;99.90;;;;;;5034953;28;20015;-72
2023/01/23 08:46:52;;;;;;;;;;;23.80;99.90;;;;;;5030907;28;19916;-72
2023/01/23 08:49:19;;;;;;;;;;;23.80;99.90;;;;;;5032792;28;20371;-71
2023/01/23 08:51:46;;;;;;;;;;;23.70;99.90;;;;;;5034116;28;19975;-72
2023/01/23 08:54:12;;;;;;;;;;;23.70;99.90;;;;;;5032865;28;19921;-71
2023/01/23 08:56:40;;;;;;;;;;;23.70;99.90;;;;;;5033228;28;19947;-71
2023/01/23 08:59:06;;;;;;;;;;;23.60;99.90;;;;;;5033044;28;19912;-72
2023/01/23 09:01:33;;;;;;;;;;;23.60;99.90;;;;;;5032153;28;20419;-71
2023/01/23 09:04:00;;;;;;;;;;;23.60;99.90;;;;;;5047800;28;19921;-73
2023/01/23 09:06:27;;;;;;;;;;;23.60;99.90;;;;;;5033955;28;19995;-71
2023/01/23 09:08:53;;;;;;;;;;;23.50;99.90;;;;;;5046193;28;19912;-73
2023/01/23 09:11:22;;;;;;;;;;;23.50;99.90;;;;;;5031600;28;20382;-71
2023/01/23 09:13:49;;;;;;;;;;;23.40;99.90;;;;;;5031669;28;19920;-71
2023/01/23 09:16:16;;;;;;;;;;;23.30;99.90;;;;;;5033318;28;20350;-71
2023/01/23 09:18:43;;;;;;;;;;;23.30;99.90;;;;;;5031489;28;20355;-71
2023/01/23 09:21:10;;;;;;;;;;;23.20;99.90;;;;;;5032941;28;19935;-71
2023/01/23 09:23:37;;;;;;;;;;;23.10;99.90;;;;;;5032535;28;19913;-71
2023/01/23 09:26:08;;;;;;;;;;;23.00;99.90;;;;;;5032720;28;19917;-72
2023/01/23 09:28:35;;;;;;;;;;;23.00;99.90;;;;;;5030553;28;20028;-72
2023/01/23 09:31:03;;;;;;;;;;;22.90;99.90;;;;;;5033465;28;19916;-72
2023/01/23 09:33:29;;;;;;;;;;;22.90;99.90;;;;;;5031436;28;19925;-71
2023/01/23 09:35:56;;;;;;;;;;;22.80;99.90;;;;;;5032066;28;19940;-71
2023/01/23 09:38:23;;;;;;;;;;;22.80;99.90;;;;;;5032423;28;20557;-73
2023/01/23 09:40:54;;;;;;;;;;;22.80;99.90;;;;;;5029825;28;19924;-72
2023/01/23 09:43:30;;;;;;;;;;;22.80;99.90;;;;;;5031442;28;20476;-72
2023/01/23 09:46:17;;;;;;;;;;;22.80;99.90;;;;;;5032397;28;19951;-72
2023/01/23 09:48:46;;;;;;;;;;;22.70;99.90;;;;;;5032910;28;19913;-72
2023/01/23 09:51:15;;;;;;;;;;;22.60;99.90;;;;;;5034025;28;19963;-72
2023/01/23 09:53:42;;;;;;;;;;;22.50;99.90;;;;;;5030418;28;20013;-72
2023/01/23 09:56:21;;;;;;;;;;;22.50;99.90;;;;;;5032155;28;19908;-72
2023/01/23 09:58:57;;;;;;;;;;;22.40;99.90;;;;;;5030858;28;19923;-72
2023/01/23 10:01:26;;;;;;;;;;;22.40;99.90;;;;;;5033159;28;22450;-71
2023/01/23 10:03:52;;;;;;;;;;;22.40;99.90;;;;;;5030254;28;19917;-72
2023/01/23 10:06:22;;;;;;;;;;;22.30;99.90;;;;;;5031219;28;20007;-72
2023/01/23 10:09:04;;;;;;;;;;;22.20;99.90;;;;;;5029912;28;19916;-72
2023/01/23 10:11:37;;;;;;;;;;;22.10;99.90;;;;;;5025321;28;20857;-72
2023/01/23 10:14:06;;;;;;;;;;;22.10;99.90;;;;;;5036290;28;19921;-73
2023/01/23 10:16:33;;;;;;;;;;;22.00;99.90;;;;;;5032577;28;20430;-72
2023/01/23 10:19:18;;;;;;;;;;;21.90;99.90;;;;;;5031333;28;20185;-73
2023/01/23 10:21:52;;;;;;;;;;;21.90;99.90;;;;;;5031783;28;19916;-73
2023/01/23 10:24:31;;;;;;;;;;;21.90;99.90;;;;;;5030651;28;19917;-73
2023/01/23 10:27:04;;;;;;;;;;;21.90;99.90;;;;;;5031409;28;19917;-72
2023/01/23 10:29:35;;;;;;;;;;;21.70;99.90;;;;;;5030685;28;20512;-73
2023/01/23 10:32:05;;;;;;;;;;;21.70;99.90;;;;;;5031133;28;19925;-73
2023/01/23 10:34:37;;;;;;;;;;;21.70;99.90;;;;;;5029539;28;20059;-72
2023/01/23 10:37:17;;;;;;;;;;;21.60;99.90;;;;;;5031497;28;19917;-72
2023/01/23 10:39:49;;;;;;;;;;;21.60;99.90;;;;;;5030599;28;19956;-73
2023/01/23 10:42:18;;;;;;;;;;;21.60;99.90;;;;;;5031905;28;19962;-72
2023/01/23 10:44:46;;;;;;;;;;;21.70;99.90;;;;;;5027207;28;20019;-73
2023/01/23 10:47:39;;;;;;;;;;;21.70;99.90;;;;;;5028151;28;20320;-71
2023/01/23 10:50:06;;;;;;;;;;;21.80;99.90;;;;;;5028748;28;20318;-72
2023/01/23 10:52:43;;;;;;;;;;;21.80;99.90;;;;;;5046027;28;19921;-72
2023/01/23 10:55:19;;;;;;;;;;;21.80;99.90;;;;;;5030113;28;19919;-73
2023/01/23 10:57:47;;;;;;;;;;;21.90;99.90;;;;;;5030560;28;19977;-71
2023/01/23 11:00:17;;;;;;;;;;;21.90;99.90;;;;;;5030343;28;19908;-71
2023/01/23 11:02:44;;;;;;;;;;;22.00;99.90;;;;;;5031306;28;20796;-72
2023/01/23 11:05:31;;;;;;;;;;;22.00;99.90;;;;;;5031130;28;20317;-72
2023/01/23 11:07:57;;;;;;;;;;;22.00;99.90;;;;;;5026660;28;19908;-73
2023/01/23 11:10:24;;;;;;;;;;;22.10;99.90;;;;;;5029584;28;19913;-73
2023/01/23 11:12:55;;;;;;;;;;;22.10;99.90;;;;;;5031147;28;19921;-72
2023/01/23 11:15:26;;;;;;;;;;;22.10;99.90;;;;;;5030475;28;19921;-72
2023/01/23 11:17:54;;;;;;;;;;;22.10;99.90;;;;;;5029548;28;19923;-72
2023/01/23 11:20:27;;;;;;;;;;;22.00;99.90;;;;;;5028540;28;19920;-72
2023/01/23 11:23:14;;;;;;;;;;;22.00;99.90;;;;;;5029947;28;19919;-74
2023/01/23 11:25:41;;;;;;;;;;;22.00;99.90;;;;;;5028673;28;19935;-72
2023/01/23 11:28:17;;;;;;;;;;;22.00;99.90;;;;;;5031730;28;19909;-71
2023/01/23 11:30:46;;;;;;;;;;;22.00;99.90;;;;;;5029671;28;19963;-73
2023/01/23 11:33:22;;;;;;;;;;;22.00;99.90;;;;;;5028579;28;20012;-72
2023/01/23 11:35:52;;;;;;;;;;;22.00;99.90;;;;;;5030599;28;20374;-73
2023/01/23 11:41:14;;;;;;;;;;;22.00;99.90;;;;;;5015341;28;19908;-71
2023/01/23 11:43:41;;;;;;;;;;;22.00;99.90;;;;;;5026539;28;19966;-73
2023/01/23 11:46:23;;;;;;;;;;;22.00;99.90;;;;;;5029425;28;20435;-71
2023/01/23 11:49:12;;;;;;;;;;;22.00;99.90;;;;;;5030639;28;19970;-72
2023/01/23 11:51:50;;;;;;;;;;;22.00;99.90;;;;;;5029823;28;19917;-73
2023/01/23 11:54:36;;;;;;;;;;;22.00;99.90;;;;;;5028834;28;19912;-72
2023/01/23 11:57:11;;;;;;;;;;;22.00;99.90;;;;;;5029937;28;20366;-72
2023/01/23 11:59:43;;;;;;;;;;;22.00;99.90;;;;;;5031761;28;20276;-75
2023/01/23 12:02:10;;;;;;;;;;;22.00;99.90;;;;;;5033889;28;19912;-72
2023/01/23 12:05:09;;;;;;;;;;;22.00;99.90;;;;;;5031038;28;19913;-72
2023/01/23 12:07:42;;;;;;;;;;;22.00;99.90;;;;;;5017096;28;19925;-72
2023/01/23 12:10:22;;;;;;;;;;;22.00;99.90;;;;;;5034225;28;19920;-73
2023/01/23 12:13:02;;;;;;;;;;;22.00;99.90;;;;;;5039662;28;19921;-73
2023/01/23 12:15:28;;;;;;;;;;;22.00;99.90;;;;;;5031844;28;19922;-71
2023/01/23 12:17:58;;;;;;;;;;;22.00;99.90;;;;;;5034415;28;21093;-72
2023/01/23 12:20:29;;;;;;;;;;;22.00;99.90;;;;;;5035241;28;19924;-72
2023/01/23 12:22:58;;;;;;;;;;;22.00;99.90;;;;;;5033052;28;22890;-73
2023/01/23 12:25:27;;;;;;;;;;;22.00;99.90;;;;;;5032150;28;19929;-72
2023/01/23 12:28:03;;;;;;;;;;;22.00;99.90;;;;;;5034147;28;19912;-71
2023/01/23 12:30:37;;;;;;;;;;;22.00;99.90;;;;;;5033708;28;19924;-72
2023/01/23 12:33:08;;;;;;;;;;;21.90;99.90;;;;;;5033811;28;19931;-71
2023/01/23 12:35:53;;;;;;;;;;;21.90;99.90;;;;;;5033273;28;20014;-75
2023/01/23 12:38:19;;;;;;;;;;;22.00;99.90;;;;;;5033627;28;19917;-71
2023/01/23 12:40:46;;;;;;;;;;;21.90;99.90;;;;;;5032861;28;20271;-72
2023/01/23 12:43:31;;;;;;;;;;;21.90;99.90;;;;;;5032147;28;19924;-71
2023/01/23 12:46:04;;;;;;;;;;;21.90;99.90;;;;;;5031161;28;20452;-72
2023/01/23 12:48:41;;;;;;;;;;;21.90;99.90;;;;;;5031713;28;19912;-73
2023/01/23 12:51:26;;;;;;;;;;;21.90;99.90;;;;;;5034314;28;19940;-73
2023/01/23 12:53:55;;;;;;;;;;;21.90;99.90;;;;;;5032492;28;19947;-73
2023/01/23 12:56:29;;;;;;;;;;;21.80;99.90;;;;;;5032470;28;19912;-72
2023/01/23 12:59:06;;;;;;;;;;;21.80;99.90;;;;;;5031266;28;19925;-72
2023/01/23 13:01:53;;;;;;;;;;;21.80;99.90;;;;;;5033731;28;19916;-73
2023/01/23 13:04:38;;;;;;;;;;;21.80;99.90;;;;;;5030813;28;20044;-72
2023/01/23 13:07:13;;;;;;;;;;;21.80;99.90;;;;;;5032104;28;19916;-73
2023/01/23 13:09:39;;;;;;;;;;;21.70;99.90;;;;;;5031102;28;19919;-73
2023/01/23 13:12:20;;;;;;;;;;;21.70;99.90;;;;;;5037196;28;20329;-73
2023/01/23 13:14:47;;;;;;;;;;;21.60;99.90;;;;;;5030832;28;19917;-73
2023/01/23 13:17:28;;;;;;;;;;;21.60;99.90;;;;;;5032200;28;20455;-72
2023/01/23 13:23:18;;;;;;;;;;;21.50;99.90;;;;;;5032212;28;20058;-72
2023/01/23 13:25:45;;;;;;;;;;;21.40;99.90;;;;;;5032474;28;19917;-73
2023/01/23 13:28:29;;;;;;;;;;;21.30;99.90;;;;;;5029649;28;19955;-71
2023/01/23 13:31:02;;;;;;;;;;;21.30;99.90;;;;;;5026421;28;19956;-73
2023/01/23 13:33:29;;;;;;;;;;;21.10;99.90;;;;;;5029702;28;19931;-74
2023/01/23 13:35:58;;;;;;;;;;;21.00;99.90;;;;;;5032227;28;20157;-71
2023/01/23 13:38:36;;;;;;;;;;;21.00;99.90;;;;;;5032187;28;19923;-71
2023/01/23 13:41:17;;;;;;;;;;;20.90;99.90;;;;;;5030012;28;19912;-71
2023/01/23 13:43:49;;;;;;;;;;;20.80;99.90;;;;;;5029260;28;19917;-71
2023/01/23 13:46:25;;;;;;;;;;;20.80;99.90;;;;;;5032274;28;20204;-71
2023/01/23 13:51:44;;;;;;;;;;;20.60;99.90;;;;;;5032268;28;20539;-72
2023/01/23 13:56:57;;;;;;;;;;;20.60;99.90;;;;;;5031594;28;19922;-71
2023/01/23 13:59:27;;;;;;;;;;;20.60;99.90;;;;;;5031313;28;19927;-72
2023/01/23 14:05:12;;;;;;;;;;;20.50;99.90;;;;;;5030996;28;20431;-71
2023/01/23 14:07:43;;;;;;;;;;;20.50;99.90;;;;;;5035836;28;19988;-70
2023/01/23 14:10:23;;;;;;;;;;;20.50;99.90;;;;;;5034558;28;19944;-71
2023/01/23 14:13:00;;;;;;;;;;;20.50;99.90;;;;;;5031579;28;19917;-72
2023/01/23 14:18:16;;;;;;;;;;;20.40;99.90;;;;;;5035255;28;19919;-71
2023/01/23 14:20:43;;;;;;;;;;;20.40;99.90;;;;;;5031079;28;19909;-72
2023/01/23 14:23:36;;;;;;;;;;;20.30;99.90;;;;;;5031524;28;19916;-71
2023/01/23 14:26:03;;;;;;;;;;;20.20;99.90;;;;;;5029034;28;19921;-70
2023/01/23 14:28:30;;;;;;;;;;;20.20;99.90;;;;;;5030587;28;19931;-71
2023/01/23 14:30:58;;;;;;;;;;;20.20;99.90;;;;;;5031624;28;19995;-71
2023/01/23 14:33:25;;;;;;;;;;;20.10;99.90;;;;;;5031594;28;19999;-70
2023/01/23 14:35:54;;;;;;;;;;;20.10;99.90;;;;;;5029298;28;19999;-71
2023/01/23 14:38:27;;;;;;;;;;;20.00;99.90;;;;;;5030999;28;19966;-71
2023/01/23 14:40:54;;;;;;;;;;;20.00;99.90;;;;;;5032571;28;19912;-71
2023/01/23 14:43:22;;;;;;;;;;;20.00;99.90;;;;;;5032995;28;19913;-70
2023/01/23 14:45:55;;;;;;;;;;;19.90;99.90;;;;;;5030433;28;20358;-70
2023/01/23 14:48:22;;;;;;;;;;;19.90;99.90;;;;;;5030436;28;19978;-70
2023/01/23 14:50:48;;;;;;;;;;;19.80;99.90;;;;;;5030579;28;19912;-70